Birmingham, AL (35292)

6:06 PM CST on December 20, 2014 (GMT -0600)
Central Business District | Change Station
CLOSE
Current Station
Personal Weather Station
Location: Birmingham, AL
Elevation: 636 ft
Nearby Weather Stations

Elev 636 ft 33.52 °N, 86.81 °W | Updated 8 seconds ago

Mostly Cloudy
Mostly Cloudy
49.1 °F
Feels Like 49 °F
N
0.7
Wind Variable Wind from WSW
Gusts 1.1 mph

Today
High -- | Low -- °F
--% Chance of Precip.
Yesterday
High -- | Low -- °F
Precip. -- in
6:46 AM 4:42 PM
Waning Crescent, 1% visible
Pressure 30.21 in
Visibility 10.0 miles
Clouds Clear
Windchill 49 °F
Dew Point 39 °F
Humidity 69%
Rainfall 0.00 in
Snow Depth Not available.
UV 0 out of 12
Pollen .40 out of 12
Air Quality Not available.
Flu Activity Not available.
METAR KBHM 202353Z 36003KT 10SM CLR 06/03 A3021 RMK AO2 SLP230 T00610028 10100 20061 53007

More Conditions Fewer Conditions

Pressure 30.21 in
Visibility 10.0 miles
Clouds Clear
Windchill 49 °F
Dew Point 39 °F
Humidity 69%
Rainfall 0.00 in
Snow Depth Not available.
UV 0 out of 12
Pollen .40 out of 12
Air Quality Not available.
Flu Activity Not available.
METAR KBHM 202353Z 36003KT 10SM CLR 06/03 A3021 RMK AO2 SLP230 T00610028 10100 20061 53007

More Conditions Fewer Conditions

10-Day Weather Forecast

Almanac

Astronomy

Dec. 20, 2014 Rise Set
Actual Time
Civil Twilight
Nautical Twilight
Astronomical Twilight
Moon
Length of Visible Light
Length of Day
Tomorrow will be .
, % of the Moon is Illuminated

Today's Extremes

State Highs State Lows

Community

WunderPhotos

Upload Photos

1,779,320 photos uploaded!

WunderBlogs® & News

Nearby

Air Quality

  Air Quality AQ Index Pollutant
Not available.

Snow Depth

Station Depth Elevation

Earthquake Activity

City Distance Mag. Time & Date
Minimum magnitude displayed is 2.5.

Coastal Water Temperatures

Place Temperature

Nearby Weather Stations